MSC Krittika — H3RV — position and weather

sailwx.info

Track history (hours):
 
Tides and Currents Weather Stations Pressure Air Temp Water Temp Dewpoint Dewpoint Depression Visibility Wind Speed Wind Dir Waves Ship Positions

MSC Krittika

Last reported at 2014-Sep-20 11:27 UTC. Time now 2014-Sep-20 11:55 UTC.
Position N 34°40' E 135°14'.

Length 202 m; draft 8.4 m.

Type: Ship (hazmat cat A). MMSI: 354725000.

Date/timePositionNaut miles runAvg speedWind from/ knotsBaromVisibWave heightAir tempDewpointWater temp
2014-Sep-20 11:27N 34°40' E 135°14'0 0.0
2014-Sep-20 10:33N 34°40' E 135°14'0 0.0
2014-Sep-20 09:33N 34°40' E 135°14'0 0.0
2014-Sep-20 08:33N 34°40' E 135°14'0 0.0
2014-Sep-20 07:33N 34°40' E 135°14'0 0.0
2014-Sep-20 06:33N 34°40' E 135°14'0 0.0
2014-Sep-20 05:33N 34°40' E 135°14'0 0.0
2014-Sep-20 04:33N 34°40' E 135°14'0 0.0
2014-Sep-20 03:27N 34°40' E 135°14'6 7.0
2014-Sep-20 02:33N 34°34' E 135°14'1716.4
2014-Sep-20 01:33N 34°21' E 135°02'1312.9
2014-Sep-20 00:33N 34°08' E 134°59'1212.1
2014-Sep-19 23:33N 33°56' E 134°59'20911.5
2014-Sep-19 05:19N 34°03' E 130°47'1212.3
2014-Sep-19 04:20N 34°00' E 130°33'1215.0
2014-Sep-19 03:32N 33°53' E 130°21'1414.4
2014-Sep-19 02:33N 33°39' E 130°16'7 6.5
2014-Sep-19 01:33N 33°39' E 130°24'0 0.0
2014-Sep-19 00:31N 33°39' E 130°24'0 0.0
2014-Sep-18 23:31N 33°39' E 130°24'0 0.0
2014-Sep-18 15:19N 33°39' E 130°24'3 3.4
2014-Sep-18 14:33N 33°38' E 130°21'1211.7
2014-Sep-18 13:33N 33°45' E 130°10'79717.7
2014-Sep-16 16:33N 24°31' E 119°15'2118.9
2014-Sep-16 15:28N 24°17' E 118°58'4418.6
2014-Sep-16 13:05N 23°51' E 118°19'1018.5
2014-Sep-16 12:33N 23°44' E 118°11'2617.8
2014-Sep-16 11:07N 23°26' E 117°52'916.2
2014-Sep-16 10:33N 23°20' E 117°44'211 9.1
2014-Sep-15 11:25N 22°18' E 114°06'1110.4
2014-Sep-15 10:22N 22°22' E 113°55'6 7.5
2014-Sep-15 09:33N 22°27' E 113°53'1 0.6
2014-Sep-15 08:14N 22°28' E 113°52'0 0.0
2014-Sep-15 07:32N 22°28' E 113°52'0 0.0
2014-Sep-15 06:32N 22°28' E 113°52'0 0.0
2014-Sep-15 05:32N 22°28' E 113°52'0 0.0
2014-Sep-15 04:32N 22°28' E 113°52'0 0.0
2014-Sep-15 03:32N 22°28' E 113°52'0 0.0
2014-Sep-15 02:32N 22°28' E 113°52'0 0.0
2014-Sep-15 01:32N 22°28' E 113°52'0 0.0
2014-Sep-15 00:32N 22°28' E 113°52'0 0.0
2014-Sep-14 23:26N 22°28' E 113°52'0 0.0
2014-Sep-14 22:32N 22°28' E 113°52'0 0.0
2014-Sep-14 21:20N 22°28' E 113°52'0 0.0
2014-Sep-14 20:14N 22°28' E 113°52'0 0.0
2014-Sep-14 19:32N 22°28' E 113°52'0 0.0
2014-Sep-14 18:26N 22°28' E 113°52'0 0.0
2014-Sep-14 17:14N 22°28' E 113°52'0 0.0
2014-Sep-14 16:32N 22°28' E 113°52'0 0.0
2014-Sep-14 15:32N 22°28' E 113°52'0 0.0
2014-Sep-14 14:32N 22°28' E 113°52'0 0.0
2014-Sep-14 13:26N 22°28' E 113°52'0 0.0
2014-Sep-14 12:32N 22°28' E 113°52'0 0.0
2014-Sep-14 11:32N 22°28' E 113°52'0 0.0
2014-Sep-14 10:26N 22°28' E 113°52'0 0.0
2014-Sep-14 09:32N 22°28' E 113°52'0 0.0
2014-Sep-14 08:26N 22°28' E 113°52'0 0.0
2014-Sep-14 07:32N 22°28' E 113°52'0 0.0
2014-Sep-14 06:32N 22°28' E 113°52'0 0.0
2014-Sep-14 05:32N 22°28' E 113°52'0 0.0
2014-Sep-14 04:32N 22°28' E 113°52'0 0.0
2014-Sep-14 02:32N 22°28' E 113°52'4 4.6
2014-Sep-14 01:33N 22°24' E 113°54'23711.3
2014-Sep-13 04:32N 23°34' E 118°00'1515.3
2014-Sep-13 03:33N 23°44' E 118°12'1716.6
2014-Sep-13 02:32N 23°55' E 118°26'3216.3
2014-Sep-13 00:33N 24°15' E 118°54'1716.5
2014-Sep-12 23:33N 24°25' E 119°09'2516.6
2014-Sep-12 22:03N 24°41' E 119°30'38417.8
2014-Sep-12 00:26N 27°48' E 125°44'3518.2
2014-Sep-11 22:32N 28°02' E 126°19'  
Track history (hours):
 
Tides and Currents Weather Stations Pressure Air Temp Water Temp Dewpoint Dewpoint Depression Visibility Wind Speed Wind Dir Waves Ship Positions

MSC Krittika

Last reported at 2014-Sep-20 11:27 UTC. Time now 2014-Sep-20 11:55 UTC.
Position N 34°40' E 135°14'.

Length 202 m; draft 8.4 m.

Type: Ship (hazmat cat A). MMSI: 354725000.

Date/timePositionNaut miles runAvg speedWind from/ knotsBaromVisibWave heightAir tempDewpointWater temp
2014-Sep-20 11:27N 34°40' E 135°14'0 0.0
2014-Sep-20 10:33N 34°40' E 135°14'0 0.0
2014-Sep-20 09:33N 34°40' E 135°14'0 0.0
2014-Sep-20 08:33N 34°40' E 135°14'0 0.0
2014-Sep-20 07:33N 34°40' E 135°14'0 0.0
2014-Sep-20 06:33N 34°40' E 135°14'0 0.0
2014-Sep-20 05:33N 34°40' E 135°14'0 0.0
2014-Sep-20 04:33N 34°40' E 135°14'0 0.0
2014-Sep-20 03:27N 34°40' E 135°14'6 7.0
2014-Sep-20 02:33N 34°34' E 135°14'1716.4
2014-Sep-20 01:33N 34°21' E 135°02'1312.9
2014-Sep-20 00:33N 34°08' E 134°59'1212.1
2014-Sep-19 23:33N 33°56' E 134°59'20911.5
2014-Sep-19 05:19N 34°03' E 130°47'1212.3
2014-Sep-19 04:20N 34°00' E 130°33'1215.0
2014-Sep-19 03:32N 33°53' E 130°21'1414.4
2014-Sep-19 02:33N 33°39' E 130°16'7 6.5
2014-Sep-19 01:33N 33°39' E 130°24'0 0.0
2014-Sep-19 00:31N 33°39' E 130°24'0 0.0
2014-Sep-18 23:31N 33°39' E 130°24'0 0.0
2014-Sep-18 15:19N 33°39' E 130°24'3 3.4
2014-Sep-18 14:33N 33°38' E 130°21'1211.7
2014-Sep-18 13:33N 33°45' E 130°10'79717.7
2014-Sep-16 16:33N 24°31' E 119°15'2118.9
2014-Sep-16 15:28N 24°17' E 118°58'4418.6
2014-Sep-16 13:05N 23°51' E 118°19'1018.5
2014-Sep-16 12:33N 23°44' E 118°11'2617.8
2014-Sep-16 11:07N 23°26' E 117°52'916.2
2014-Sep-16 10:33N 23°20' E 117°44'211 9.1
2014-Sep-15 11:25N 22°18' E 114°06'1110.4
2014-Sep-15 10:22N 22°22' E 113°55'6 7.5
2014-Sep-15 09:33N 22°27' E 113°53'1 0.6
2014-Sep-15 08:14N 22°28' E 113°52'0 0.0
2014-Sep-15 07:32N 22°28' E 113°52'0 0.0
2014-Sep-15 06:32N 22°28' E 113°52'0 0.0
2014-Sep-15 05:32N 22°28' E 113°52'0 0.0
2014-Sep-15 04:32N 22°28' E 113°52'0 0.0
2014-Sep-15 03:32N 22°28' E 113°52'0 0.0
2014-Sep-15 02:32N 22°28' E 113°52'0 0.0
2014-Sep-15 01:32N 22°28' E 113°52'0 0.0
2014-Sep-15 00:32N 22°28' E 113°52'0 0.0
2014-Sep-14 23:26N 22°28' E 113°52'0 0.0
2014-Sep-14 22:32N 22°28' E 113°52'0 0.0
2014-Sep-14 21:20N 22°28' E 113°52'0 0.0
2014-Sep-14 20:14N 22°28' E 113°52'0 0.0
2014-Sep-14 19:32N 22°28' E 113°52'0 0.0
2014-Sep-14 18:26N 22°28' E 113°52'0 0.0
2014-Sep-14 17:14N 22°28' E 113°52'0 0.0
2014-Sep-14 16:32N 22°28' E 113°52'0 0.0
2014-Sep-14 15:32N 22°28' E 113°52'0 0.0
2014-Sep-14 14:32N 22°28' E 113°52'0 0.0
2014-Sep-14 13:26N 22°28' E 113°52'0 0.0
2014-Sep-14 12:32N 22°28' E 113°52'0 0.0
2014-Sep-14 11:32N 22°28' E 113°52'0 0.0
2014-Sep-14 10:26N 22°28' E 113°52'0 0.0
2014-Sep-14 09:32N 22°28' E 113°52'0 0.0
2014-Sep-14 08:26N 22°28' E 113°52'0 0.0
2014-Sep-14 07:32N 22°28' E 113°52'0 0.0
2014-Sep-14 06:32N 22°28' E 113°52'0 0.0
2014-Sep-14 05:32N 22°28' E 113°52'0 0.0
2014-Sep-14 04:32N 22°28' E 113°52'0 0.0
2014-Sep-14 02:32N 22°28' E 113°52'4 4.6
2014-Sep-14 01:33N 22°24' E 113°54'23711.3
2014-Sep-13 04:32N 23°34' E 118°00'1515.3
2014-Sep-13 03:33N 23°44' E 118°12'1716.6
2014-Sep-13 02:32N 23°55' E 118°26'3216.3
2014-Sep-13 00:33N 24°15' E 118°54'1716.5
2014-Sep-12 23:33N 24°25' E 119°09'2516.6
2014-Sep-12 22:03N 24°41' E 119°30'38417.8
2014-Sep-12 00:26N 27°48' E 125°44'3518.2
2014-Sep-11 22:32N 28°02' E 126°19'  

Dump ship's entire track history